Time;durP1;ratioP1;P1;durP2;ratioP2;P2;SDS_P1;SDS_P2;PMS_P1;PMS_P2;Temp;Humidity;BMP_temperature;BMP_pressure;BME280_temperature;BME280_humidity;BME280_pressure;Samples;Min_cycle;Max_cycle;Signal;HPM_P1;HPM_P2
2023/12/31 00:00:12;;;;;;;7.57;2.30;;;;;;;6.44;89.31;100225.16;7391600;19;20410;-66
2023/12/31 00:02:38;;;;;;;8.80;2.45;;;;;;;6.43;89.76;100228.75;7391876;19;20682;-65
2023/12/31 00:05:05;;;;;;;7.35;2.20;;;;;;;6.41;89.91;100222.81;7395957;19;20380;-65
2023/12/31 00:07:33;;;;;;;8.13;2.83;;;;;;;6.40;89.90;100215.09;7396479;19;20369;-66
2023/12/31 00:10:01;;;;;;;7.93;2.28;;;;;;;6.39;90.16;100213.44;7395552;19;20890;-66
2023/12/31 00:12:27;;;;;;;6.47;2.28;;;;;;;6.38;90.36;100203.91;7395762;19;20336;-67
2023/12/31 00:14:54;;;;;;;7.47;2.40;;;;;;;6.37;90.45;100194.34;7393399;19;20336;-66
2023/12/31 00:17:21;;;;;;;6.63;2.33;;;;;;;6.36;90.56;100193.50;7395697;19;20345;-66
2023/12/31 00:19:48;;;;;;;7.53;2.50;;;;;;;6.35;90.98;100183.94;7393692;19;20364;-66
2023/12/31 00:22:14;;;;;;;6.40;2.30;;;;;;;6.35;91.00;100185.75;7395085;19;20341;-66
2023/12/31 00:24:41;;;;;;;6.00;2.40;;;;;;;6.34;91.04;100182.31;7394223;19;20352;-66
2023/12/31 00:27:08;;;;;;;6.35;2.40;;;;;;;6.33;91.19;100178.84;7394700;19;20369;-66
2023/12/31 00:29:34;;;;;;;7.45;2.55;;;;;;;6.35;91.38;100180.50;7396406;19;20459;-65
2023/12/31 00:32:01;;;;;;;9.02;2.42;;;;;;;6.36;91.39;100172.44;7392712;19;20373;-65
2023/12/31 00:34:27;;;;;;;7.45;2.30;;;;;;;6.37;91.48;100162.72;7391153;19;20805;-66
2023/12/31 00:36:54;;;;;;;4.25;2.03;;;;;;;6.38;91.53;100169.66;7395387;19;20892;-66
2023/12/31 00:39:21;;;;;;;5.60;2.10;;;;;;;6.40;91.86;100168.50;7390692;19;20879;-66
2023/12/31 00:41:48;;;;;;;6.45;2.40;;;;;;;6.42;91.77;100165.69;7395831;19;20328;-66
2023/12/31 00:44:14;;;;;;;5.93;2.38;;;;;;;6.42;91.80;100158.63;7394956;19;20438;-66
2023/12/31 00:46:41;;;;;;;7.38;2.45;;;;;;;6.44;91.78;100154.03;7392957;19;20393;-65
2023/12/31 00:49:08;;;;;;;7.38;2.22;;;;;;;6.46;92.22;100146.78;7392549;19;20344;-66
2023/12/31 00:51:34;;;;;;;5.82;2.10;;;;;;;6.48;92.06;100146.59;7392819;19;20692;-66
2023/12/31 00:54:01;;;;;;;6.00;2.40;;;;;;;6.47;92.21;100140.50;7388734;19;20351;-66
2023/12/31 00:56:28;;;;;;;6.55;2.30;;;;;;;6.44;92.54;100143.47;7393673;19;20396;-66
2023/12/31 00:58:55;;;;;;;5.28;1.90;;;;;;;6.45;92.82;100137.22;7394555;19;20344;-66
2023/12/31 01:01:21;;;;;;;5.82;2.40;;;;;;;6.45;92.85;100142.47;7392857;19;20349;-66
2023/12/31 01:03:48;;;;;;;6.40;2.20;;;;;;;6.44;93.13;100137.38;7391714;19;20369;-66
2023/12/31 01:06:15;;;;;;;8.17;2.30;;;;;;;6.51;92.90;100131.31;7391813;19;20384;-66
2023/12/31 01:08:42;;;;;;;7.95;2.83;;;;;;;6.53;92.55;100129.31;7391470;19;20363;-66
2023/12/31 01:11:08;;;;;;;6.53;2.40;;;;;;;6.56;92.41;100135.25;7391907;19;20377;-66
2023/12/31 01:13:35;;;;;;;5.93;2.15;;;;;;;6.58;92.42;100130.66;7393708;19;20646;-67
2023/12/31 01:16:04;;;;;;;6.88;2.10;;;;;;;6.59;92.42;100127.00;7391906;19;20366;-65
2023/12/31 01:18:31;;;;;;;7.40;2.30;;;;;;;6.59;92.22;100124.38;7391702;19;20364;-66
2023/12/31 01:21:00;;;;;;;8.07;2.53;;;;;;;6.62;92.20;100118.81;7390403;19;20365;-66
2023/12/31 01:23:27;;;;;;;6.80;2.65;;;;;;;6.64;92.09;100114.19;7390054;19;20452;-66
2023/12/31 01:25:54;;;;;;;5.75;2.42;;;;;;;6.66;92.10;100114.84;7389793;19;20320;-66
2023/12/31 01:28:21;;;;;;;5.70;2.53;;;;;;;6.69;91.87;100119.78;7392410;19;20378;-66
2023/12/31 01:30:48;;;;;;;6.47;2.50;;;;;;;6.71;91.81;100112.53;7392369;19;20364;-66
2023/12/31 01:33:15;;;;;;;7.57;2.22;;;;;;;6.75;92.01;100108.59;7392341;19;20420;-66
2023/12/31 01:35:41;;;;;;;6.82;2.53;;;;;;;6.82;91.78;100106.09;7390973;19;20431;-66
2023/12/31 01:38:08;;;;;;;7.55;2.00;;;;;;;6.87;91.75;100099.38;7391231;19;20698;-66
2023/12/31 01:40:35;;;;;;;6.72;2.10;;;;;;;6.95;91.41;100109.09;7391890;19;20341;-66
2023/12/31 01:43:02;;;;;;;6.10;2.25;;;;;;;6.98;91.18;100102.66;7392616;19;20378;-66
2023/12/31 01:45:29;;;;;;;5.50;1.95;;;;;;;7.03;90.95;100100.34;7391071;19;20860;-66
2023/12/31 01:47:57;;;;;;;6.57;2.20;;;;;;;7.03;90.88;100093.25;7394157;19;20463;-66
2023/12/31 01:50:24;;;;;;;5.22;2.00;;;;;;;7.03;90.65;100100.34;7389842;19;20907;-66
2023/12/31 01:52:52;;;;;;;6.05;2.20;;;;;;;7.01;90.83;100102.31;7390988;19;20348;-67
2023/12/31 01:55:19;;;;;;;4.93;2.13;;;;;;;6.99;90.80;100099.03;7387753;19;20894;-66
2023/12/31 01:57:48;;;;;;;5.87;2.20;;;;;;;6.96;90.61;100102.00;7390128;19;20453;-67
2023/12/31 02:00:15;;;;;;;5.63;2.35;;;;;;;6.92;90.63;100104.13;7385327;19;20415;-66
2023/12/31 02:02:43;;;;;;;8.27;2.58;;;;;;;6.84;90.70;100094.44;7390406;19;20888;-66
2023/12/31 02:05:11;;;;;;;4.80;2.13;;;;;;;6.79;90.56;100088.00;7389356;19;20357;-67
2023/12/31 02:07:38;;;;;;;5.45;2.10;;;;;;;6.73;90.81;100097.38;7387010;19;20369;-66
2023/12/31 02:10:05;;;;;;;5.43;2.00;;;;;;;6.67;90.80;100093.63;7385654;19;20904;-66
2023/12/31 02:12:32;;;;;;;4.88;2.25;;;;;;;6.62;91.09;100081.91;7386461;19;20979;-67
2023/12/31 02:14:59;;;;;;;6.72;2.45;;;;;;;6.58;91.51;100078.75;7386829;19;20658;-67
2023/12/31 02:17:25;;;;;;;6.57;1.90;;;;;;;6.53;91.70;100084.53;7390071;19;20765;-67
2023/12/31 02:19:52;;;;;;;6.72;2.10;;;;;;;6.49;91.75;100072.66;7390966;19;20416;-66
2023/12/31 02:22:19;;;;;;;5.20;2.03;;;;;;;6.48;91.96;100071.03;7397383;19;20328;-66
2023/12/31 02:24:48;;;;;;;5.47;2.33;;;;;;;6.45;91.95;100076.63;7393582;19;21232;-66
2023/12/31 02:27:15;;;;;;;4.95;2.05;;;;;;;6.43;92.05;100073.31;7397678;19;20393;-66
2023/12/31 02:29:42;;;;;;;7.33;2.30;;;;;;;6.41;92.06;100070.03;7395434;19;20388;-66
2023/12/31 02:32:08;;;;;;;6.80;2.30;;;;;;;6.40;92.11;100060.47;7396471;19;20356;-67
2023/12/31 02:34:35;;;;;;;4.90;2.03;;;;;;;6.36;92.46;100056.53;7397357;19;21021;-66
2023/12/31 02:37:02;;;;;;;6.70;2.10;;;;;;;6.35;92.23;100043.50;7396734;19;20340;-66
2023/12/31 02:39:29;;;;;;;5.53;2.10;;;;;;;6.34;92.50;100042.69;7394994;19;20369;-66
2023/12/31 02:41:56;;;;;;;6.28;2.20;;;;;;;6.32;92.39;100045.47;7396326;19;20372;-66
2023/12/31 02:44:23;;;;;;;5.40;2.38;;;;;;;6.30;92.33;100041.38;7396703;19;20371;-66
2023/12/31 02:46:49;;;;;;;6.90;2.58;;;;;;;6.27;92.58;100042.53;7397851;19;20438;-66
2023/12/31 02:49:16;;;;;;;6.15;2.35;;;;;;;6.25;92.70;100038.41;7395706;19;20939;-66
2023/12/31 02:51:44;;;;;;;7.50;2.28;;;;;;;6.22;92.71;100033.47;7396521;19;20390;-66
2023/12/31 02:54:11;;;;;;;7.43;2.40;;;;;;;6.19;92.63;100028.53;7395686;19;20389;-67
2023/12/31 02:56:41;;;;;;;5.90;2.22;;;;;;;6.16;92.41;100028.84;7393548;19;20345;-66
2023/12/31 02:59:08;;;;;;;5.47;2.30;;;;;;;6.14;92.62;100023.72;7399077;19;20365;-66
2023/12/31 03:01:36;;;;;;;5.70;2.50;;;;;;;6.09;92.52;100021.59;7396764;19;20467;-66
2023/12/31 03:04:02;;;;;;;4.68;2.10;;;;;;;6.06;92.58;100019.28;7394384;19;20361;-66
2023/12/31 03:06:32;;;;;;;5.13;2.10;;;;;;;6.02;92.86;100011.88;7395929;19;20711;-66
2023/12/31 03:09:01;;;;;;;8.38;2.70;;;;;;;5.97;92.76;100001.84;7394022;19;20883;-66
2023/12/31 03:11:28;;;;;;;7.32;2.33;;;;;;;5.93;92.96;99985.50;7397634;19;20399;-66
2023/12/31 03:13:55;;;;;;;7.22;2.50;;;;;;;5.90;93.34;99980.53;7396101;19;20357;-66
2023/12/31 03:16:24;;;;;;;6.90;2.35;;;;;;;5.90;93.59;99990.25;7394921;19;20439;-66
2023/12/31 03:18:55;;;;;;;6.97;2.30;;;;;;;5.90;94.72;99991.06;7395460;19;20385;-66
2023/12/31 03:21:22;;;;;;;6.18;2.40;;;;;;;5.92;95.11;99989.09;7394463;19;20727;-66
2023/12/31 03:23:50;;;;;;;5.35;2.22;;;;;;;5.97;95.45;99988.69;7393258;19;20895;-66
2023/12/31 03:26:17;;;;;;;4.60;2.10;;;;;;;6.02;95.63;99981.09;7394911;19;20704;-66
2023/12/31 03:28:43;;;;;;;5.85;2.40;;;;;;;6.07;95.67;99970.88;7393431;19;20961;-65
2023/12/31 03:31:12;;;;;;;6.53;2.33;;;;;;;6.10;95.62;99975.84;7392673;19;20360;-66
2023/12/31 03:33:40;;;;;;;7.72;3.10;;;;;;;6.15;95.75;99970.09;7395331;19;20352;-66
2023/12/31 03:36:07;;;;;;;7.15;2.90;;;;;;;6.19;95.82;99955.59;7394129;19;20469;-66
2023/12/31 03:38:34;;;;;;;7.85;2.75;;;;;;;6.22;95.62;99955.25;7394977;19;20377;-66
2023/12/31 03:41:01;;;;;;;5.25;2.28;;;;;;;6.25;95.53;99948.88;7393701;19;20740;-66
2023/12/31 03:43:28;;;;;;;7.57;2.30;;;;;;;6.28;95.49;99948.53;7396079;19;20729;-66
2023/12/31 03:45:55;;;;;;;7.65;2.20;;;;;;;6.32;95.38;99949.84;7392416;19;20357;-66
2023/12/31 03:48:23;;;;;;;6.95;2.40;;;;;;;6.36;95.52;99950.34;7391948;19;20344;-66
2023/12/31 03:50:49;;;;;;;5.03;2.10;;;;;;;6.40;95.44;99941.94;7392237;19;20729;-66
2023/12/31 03:53:16;;;;;;;5.28;2.03;;;;;;;6.44;95.51;99935.34;7394483;19;20340;-66
2023/12/31 03:55:43;;;;;;;5.22;2.08;;;;;;;6.47;95.54;99927.09;7388675;19;20368;-65
2023/12/31 03:58:10;;;;;;;5.28;2.03;;;;;;;6.51;95.26;99927.59;7394424;19;20534;-66
2023/12/31 04:00:36;;;;;;;5.53;1.85;;;;;;;6.55;95.38;99922.81;7392366;19;20902;-66
2023/12/31 04:03:03;;;;;;;4.40;2.10;;;;;;;6.57;95.31;99918.19;7393236;19;20324;-66
2023/12/31 04:05:31;;;;;;;5.00;2.10;;;;;;;6.60;95.21;99917.84;7392470;19;20880;-66
2023/12/31 04:07:58;;;;;;;4.95;2.30;;;;;;;6.66;95.29;99911.91;7390769;19;20688;-66
2023/12/31 04:10:25;;;;;;;6.05;2.78;;;;;;;6.71;95.21;99902.50;7391570;19;20364;-66
2023/12/31 04:12:52;;;;;;;5.63;2.53;;;;;;;6.77;95.31;99889.66;7392789;19;20353;-65
2023/12/31 04:15:18;;;;;;;5.38;2.45;;;;;;;6.83;95.02;99879.22;7391742;19;20340;-66
2023/12/31 04:17:45;;;;;;;6.28;2.20;;;;;;;6.88;94.64;99879.53;7392251;19;20355;-66
2023/12/31 04:20:12;;;;;;;4.85;2.33;;;;;;;6.92;94.67;99872.13;7390918;19;20864;-66
2023/12/31 04:22:39;;;;;;;6.05;2.28;;;;;;;6.95;94.66;99871.78;7395769;19;20332;-66
2023/12/31 04:25:06;;;;;;;4.95;2.28;;;;;;;6.98;94.62;99862.69;7389004;19;20412;-66
2023/12/31 04:27:35;;;;;;;5.63;2.17;;;;;;;6.99;94.67;99851.16;7389424;19;20685;-67
2023/12/31 04:30:02;;;;;;;5.63;2.47;;;;;;;7.00;94.68;99842.25;7389163;19;20364;-66
2023/12/31 04:32:29;;;;;;;5.45;2.38;;;;;;;7.01;94.58;99835.97;7390747;19;20860;-66
2023/12/31 04:34:56;;;;;;;6.80;2.20;;;;;;;7.02;94.60;99830.53;7390446;19;20872;-66
2023/12/31 04:37:22;;;;;;;5.40;2.30;;;;;;;7.04;94.79;99822.47;7391528;19;20320;-66
2023/12/31 04:39:49;;;;;;;6.20;2.25;;;;;;;7.02;94.77;99825.28;7391212;19;20328;-67
2023/12/31 04:42:16;;;;;;;3.63;2.13;;;;;;;6.99;95.05;99819.50;7393314;19;20357;-66
2023/12/31 04:44:44;;;;;;;6.78;2.50;;;;;;;6.99;95.16;99814.22;7391857;19;20371;-67
2023/12/31 04:47:11;;;;;;;4.93;2.20;;;;;;;6.97;95.21;99817.06;7391515;19;20377;-66
2023/12/31 04:49:38;;;;;;;4.80;2.40;;;;;;;6.94;95.41;99812.94;7390088;19;20463;-66
2023/12/31 04:52:05;;;;;;;5.10;2.10;;;;;;;6.94;95.61;99820.03;7389687;19;20361;-66
2023/12/31 04:54:31;;;;;;;5.65;2.22;;;;;;;6.96;95.34;99818.03;7391317;19;20360;-66
2023/12/31 04:56:58;;;;;;;7.20;2.40;;;;;;;6.96;95.59;99811.97;7392504;19;20389;-66
2023/12/31 04:59:25;;;;;;;5.10;2.20;;;;;;;6.94;95.68;99814.75;7389217;19;20366;-66
2023/12/31 05:01:52;;;;;;;4.93;2.10;;;;;;;6.96;95.61;99804.84;7386709;19;20706;-66
2023/12/31 05:04:19;;;;;;;5.80;2.10;;;;;;;6.96;95.63;99819.88;7393190;19;20337;-67
2023/12/31 05:06:46;;;;;;;5.15;2.40;;;;;;;6.94;95.43;99814.75;7388945;19;20328;-66
2023/12/31 05:09:13;;;;;;;5.43;2.10;;;;;;;6.93;95.24;99813.13;7386877;19;20336;-66
2023/12/31 05:11:39;;;;;;;5.20;2.05;;;;;;;6.92;95.04;99816.75;7385602;19;20382;-66
2023/12/31 05:14:06;;;;;;;4.30;1.92;;;;;;;6.89;95.22;99807.38;7390666;19;20357;-66
2023/12/31 05:16:33;;;;;;;4.85;2.20;;;;;;;6.86;95.30;99807.69;7386528;19;20365;-66
2023/12/31 05:19:01;;;;;;;4.85;2.00;;;;;;;6.85;94.97;99803.44;7390178;19;20368;-66
2023/12/31 05:21:27;;;;;;;4.60;1.95;;;;;;;6.83;95.01;99802.78;7388177;19;20859;-66
2023/12/31 05:23:54;;;;;;;4.40;1.92;;;;;;;6.80;94.74;99800.50;7393924;19;20365;-66
2023/12/31 05:26:21;;;;;;;4.57;2.00;;;;;;;6.75;94.76;99787.00;7389137;19;20844;-66
2023/12/31 05:28:47;;;;;;;3.67;1.75;;;;;;;6.73;94.98;99787.16;7388716;19;20364;-66
2023/12/31 05:31:14;;;;;;;5.28;1.80;;;;;;;6.72;95.14;99790.00;7388191;19;20357;-66
2023/12/31 05:33:41;;;;;;;4.18;1.50;;;;;;;6.68;95.33;99786.06;7389079;19;20394;-66
2023/12/31 05:36:08;;;;;;;4.63;1.67;;;;;;;6.67;95.52;99787.03;7390418;19;20324;-66
2023/12/31 05:38:35;;;;;;;3.97;1.77;;;;;;;6.67;95.64;99784.41;7387546;19;20838;-66
2023/12/31 05:41:02;;;;;;;3.00;1.50;;;;;;;6.68;95.68;99776.34;7389566;19;20352;-66
2023/12/31 05:43:28;;;;;;;3.63;1.73;;;;;;;6.67;95.63;99774.72;7392566;19;20443;-66
2023/12/31 05:45:55;;;;;;;3.10;1.42;;;;;;;6.67;95.67;99758.91;7390015;19;20424;-66
2023/12/31 05:48:22;;;;;;;5.18;1.58;;;;;;;6.68;95.61;99759.72;7389644;19;20381;-66
2023/12/31 05:50:49;;;;;;;4.65;1.40;;;;;;;6.67;95.64;99753.63;7389440;19;20352;-66
2023/12/31 05:53:16;;;;;;;4.72;1.77;;;;;;;6.68;95.63;99760.53;7394130;19;20364;-66
2023/12/31 05:55:43;;;;;;;6.60;1.50;;;;;;;6.68;95.52;99743.91;7386753;19;20686;-66
2023/12/31 05:58:11;;;;;;;4.43;1.65;;;;;;;6.67;95.75;99742.25;7389643;19;20341;-66
2023/12/31 06:00:37;;;;;;;3.47;1.50;;;;;;;6.66;95.69;99737.97;7388679;19;20390;-66
2023/12/31 06:03:05;;;;;;;3.33;1.60;;;;;;;6.65;95.65;99738.94;7389755;19;21039;-66
2023/12/31 06:05:32;;;;;;;3.78;1.77;;;;;;;6.64;96.00;99727.59;7389507;19;20691;-66
2023/12/31 06:07:59;;;;;;;4.55;1.60;;;;;;;6.66;96.10;99735.34;7389413;19;20345;-66
2023/12/31 06:10:26;;;;;;;5.07;1.50;;;;;;;6.68;96.44;99728.09;7392580;19;20359;-66
2023/12/31 06:12:53;;;;;;;4.22;1.50;;;;;;;6.69;96.32;99725.28;7386501;19;20674;-66
2023/12/31 06:15:20;;;;;;;3.70;1.60;;;;;;;6.72;96.10;99724.09;7388458;19;20352;-66
2023/12/31 06:17:47;;;;;;;3.65;1.52;;;;;;;6.73;96.20;99717.81;7387950;19;20353;-66
2023/12/31 06:20:14;;;;;;;4.30;1.60;;;;;;;6.75;96.16;99697.38;7389536;19;20320;-66
2023/12/31 06:22:41;;;;;;;2.72;1.35;;;;;;;6.79;96.19;99706.59;7389522;19;20332;-66
2023/12/31 06:25:08;;;;;;;3.72;1.38;;;;;;;6.81;96.21;99707.25;7386853;19;20345;-66
2023/12/31 06:27:37;;;;;;;3.38;1.30;;;;;;;6.83;96.08;99699.16;7387786;19;20369;-66
2023/12/31 06:30:04;;;;;;;3.72;1.20;;;;;;;6.84;96.17;99696.38;7388764;19;20868;-66
2023/12/31 06:32:31;;;;;;;4.05;1.58;;;;;;;6.89;96.18;99698.47;7385765;19;20328;-66
2023/12/31 06:34:58;;;;;;;3.33;1.48;;;;;;;6.94;96.24;99696.94;7388572;19;20691;-66
2023/12/31 06:37:25;;;;;;;4.97;1.30;;;;;;;7.02;96.26;99703.16;7388874;19;20868;-66
2023/12/31 06:39:52;;;;;;;3.45;1.25;;;;;;;7.07;95.94;99695.53;7389268;19;20348;-66
2023/12/31 06:42:19;;;;;;;4.15;1.58;;;;;;;7.12;95.76;99682.66;7386558;19;20710;-66
2023/12/31 06:44:46;;;;;;;3.38;1.30;;;;;;;7.18;95.62;99687.19;7387423;19;20691;-66
2023/12/31 06:47:13;;;;;;;3.45;1.33;;;;;;;7.23;95.37;99684.84;7389483;19;20861;-66
2023/12/31 06:49:39;;;;;;;3.55;1.40;;;;;;;7.29;94.98;99676.22;7386749;19;20422;-66
2023/12/31 06:52:06;;;;;;;3.85;1.45;;;;;;;7.33;94.93;99685.44;7389114;19;20376;-66
2023/12/31 06:54:33;;;;;;;4.53;1.30;;;;;;;7.35;94.70;99678.16;7386097;19;20360;-66
2023/12/31 06:56:59;;;;;;;3.80;1.30;;;;;;;7.39;94.45;99675.16;7385990;19;20348;-66
2023/12/31 06:59:26;;;;;;;2.40;1.30;;;;;;;7.39;94.19;99681.22;7388166;19;20361;-66
2023/12/31 07:01:54;;;;;;;3.15;1.30;;;;;;;7.42;94.39;99672.16;7387328;19;20365;-66
2023/12/31 07:04:21;;;;;;;3.40;1.40;;;;;;;7.44;94.36;99662.22;7384865;19;20325;-66
2023/12/31 07:06:48;;;;;;;2.90;1.40;;;;;;;7.47;93.93;99653.97;7392473;19;20364;-66
2023/12/31 07:09:15;;;;;;;3.30;1.43;;;;;;;7.53;93.72;99655.88;7394552;19;20867;-66
2023/12/31 07:11:41;;;;;;;2.78;1.30;;;;;;;7.56;93.58;99660.78;7395088;19;20836;-66
2023/12/31 07:14:08;;;;;;;2.72;1.30;;;;;;;7.59;93.39;99662.22;7393537;19;20361;-66
2023/12/31 07:16:35;;;;;;;3.33;1.30;;;;;;;7.61;92.95;99650.53;7395181;19;20353;-66
2023/12/31 07:19:01;;;;;;;3.00;1.20;;;;;;;7.63;92.82;99637.13;7391595;19;20443;-66
2023/12/31 07:21:28;;;;;;;2.95;1.27;;;;;;;7.64;92.37;99638.78;7392663;19;20420;-66
2023/12/31 07:23:56;;;;;;;3.00;1.38;;;;;;;7.65;92.33;99640.41;7393301;19;20416;-66
2023/12/31 07:26:27;;;;;;;2.33;1.20;;;;;;;7.66;92.02;99637.59;7395203;19;20329;-66
2023/12/31 07:28:54;;;;;;;2.75;1.20;;;;;;;7.68;91.68;99637.41;7393088;19;20367;-66
2023/12/31 07:31:37;;;;;;;2.60;1.38;;;;;;;7.70;91.84;99638.88;7392854;19;20390;-66
2023/12/31 07:34:05;;;;;;;3.38;1.40;;;;;;;7.72;91.41;99633.41;7394709;19;20377;-66
2023/12/31 07:36:31;;;;;;;3.05;1.40;;;;;;;7.69;91.22;99629.31;7393573;19;20325;-66
2023/12/31 07:38:59;;;;;;;3.90;1.40;;;;;;;7.76;91.17;99629.41;7395110;19;20336;-66
2023/12/31 07:41:26;;;;;;;3.05;1.58;;;;;;;7.81;90.83;99629.66;7391920;19;20332;-66
2023/12/31 07:43:52;;;;;;;3.22;1.40;;;;;;;7.83;90.52;99630.31;7394781;19;20364;-66
2023/12/31 07:46:19;;;;;;;3.53;1.60;;;;;;;7.85;90.15;99627.50;7392910;19;20894;-66
2023/12/31 07:48:46;;;;;;;3.53;1.38;;;;;;;7.88;90.39;99617.34;7393303;19;20873;-66
2023/12/31 07:51:13;;;;;;;4.67;1.50;;;;;;;7.91;90.11;99618.84;7393875;19;20933;-66
2023/12/31 07:53:40;;;;;;;2.75;1.60;;;;;;;7.94;89.80;99613.16;7393963;19;20352;-66
2023/12/31 07:56:07;;;;;;;3.83;1.40;;;;;;;7.97;89.81;99612.81;7394264;19;20345;-66
2023/12/31 07:58:34;;;;;;;2.90;1.35;;;;;;;8.01;89.26;99613.25;7393430;19;20880;-66
2023/12/31 08:01:02;;;;;;;2.47;1.23;;;;;;;8.04;89.05;99611.06;7391006;19;20666;-66
2023/12/31 08:03:29;;;;;;;3.00;1.38;;;;;;;8.08;88.84;99608.88;7390737;19;21159;-66
2023/12/31 08:05:59;;;;;;;3.17;1.20;;;;;;;8.09;88.66;99608.69;7391882;19;20380;-66
2023/12/31 08:08:26;;;;;;;2.65;1.33;;;;;;;8.14;88.67;99614.25;7393537;19;20418;-66
2023/12/31 08:10:53;;;;;;;3.05;1.10;;;;;;;8.21;88.42;99613.50;7394180;19;20351;-66
2023/12/31 08:13:21;;;;;;;3.05;1.40;;;;;;;8.25;87.90;99596.28;7389453;19;20335;-66
2023/12/31 08:15:48;;;;;;;2.90;1.27;;;;;;;8.30;87.87;99591.22;7392254;19;20856;-66
2023/12/31 08:18:15;;;;;;;2.30;1.10;;;;;;;8.34;87.75;99601.25;7387901;19;20401;-66
2023/12/31 08:20:43;;;;;;;2.60;1.40;;;;;;;8.40;87.22;99589.09;7391078;19;20766;-66
2023/12/31 08:23:09;;;;;;;2.35;1.27;;;;;;;8.41;86.68;99590.75;7389124;19;20738;-66
2023/12/31 08:25:36;;;;;;;2.90;1.25;;;;;;;8.49;86.76;99580.06;7390904;19;20990;-66
2023/12/31 08:28:04;;;;;;;2.80;1.20;;;;;;;8.55;86.92;99579.31;7392511;19;20335;-66
2023/12/31 08:30:32;;;;;;;2.50;1.20;;;;;;;8.60;86.15;99583.22;7393583;19;20912;-66
2023/12/31 08:33:00;;;;;;;3.50;1.30;;;;;;;8.67;86.47;99576.16;7392259;19;20401;-67
2023/12/31 08:35:27;;;;;;;2.87;1.33;;;;;;;8.72;86.19;99576.44;7393167;19;20380;-66
2023/12/31 08:37:53;;;;;;;2.83;1.30;;;;;;;8.75;85.78;99568.09;7391867;19;20317;-66
2023/12/31 08:40:20;;;;;;;3.17;1.42;;;;;;;8.78;85.71;99570.38;7391156;19;20385;-66
2023/12/31 08:42:47;;;;;;;3.58;2.20;;;;;;;8.79;85.32;99564.06;7390097;19;20375;-66
2023/12/31 08:45:14;;;;;;;4.57;2.97;;;;;;;8.80;85.34;99560.44;7391791;19;20368;-66
2023/12/31 08:47:41;;;;;;;4.78;2.40;;;;;;;8.82;85.06;99553.13;7391071;19;20365;-66
2023/12/31 08:50:09;;;;;;;2.40;1.50;;;;;;;8.82;84.87;99553.13;7392216;19;20444;-66
2023/12/31 08:52:42;;;;;;;3.42;1.70;;;;;;;8.84;84.99;99556.41;7391171;19;20482;-65
2023/12/31 08:55:09;;;;;;;2.90;1.80;;;;;;;8.88;84.95;99539.13;7385176;19;20382;-65
2023/12/31 08:57:37;;;;;;;3.30;1.63;;;;;;;8.94;84.70;99551.56;7390066;19;20369;-64
2023/12/31 09:00:04;;;;;;;3.58;1.80;;;;;;;8.98;84.41;99541.44;7386472;19;20754;-64
2023/12/31 09:02:30;;;;;;;3.38;1.58;;;;;;;9.01;83.70;99542.88;7390409;19;20344;-64
2023/12/31 09:04:57;;;;;;;2.20;1.23;;;;;;;9.06;83.08;99532.53;7387846;19;20358;-64
2023/12/31 09:07:25;;;;;;;2.88;1.40;;;;;;;9.12;82.72;99529.13;7394060;19;20344;-64
2023/12/31 09:09:52;;;;;;;2.92;1.50;;;;;;;9.18;82.81;99525.69;7394404;19;20368;-64
2023/12/31 09:12:20;;;;;;;3.22;1.40;;;;;;;9.22;82.14;99521.63;7390996;19;20348;-64
2023/12/31 09:14:46;;;;;;;3.20;1.25;;;;;;;9.28;82.04;99520.84;7389064;19;20433;-64
2023/12/31 09:17:13;;;;;;;2.78;1.35;;;;;;;9.28;81.47;99520.03;7391372;19;20892;-64
2023/12/31 09:19:40;;;;;;;2.63;1.40;;;;;;;9.31;81.15;99514.38;7394614;19;20375;-64
2023/12/31 09:22:07;;;;;;;2.37;1.30;;;;;;;9.32;80.69;99516.00;7390981;19;20328;-64
2023/12/31 09:24:35;;;;;;;2.70;1.40;;;;;;;9.35;81.04;99515.59;7389231;19;20357;-65
2023/12/31 09:27:03;;;;;;;2.38;1.23;;;;;;;9.36;81.00;99512.75;7390056;19;20734;-64
2023/12/31 09:29:30;;;;;;;3.03;1.42;;;;;;;9.39;80.86;99508.88;7388749;19;20365;-64
2023/12/31 09:31:56;;;;;;;2.97;1.37;;;;;;;9.42;80.19;99499.75;7389003;19;20353;-64
2023/12/31 09:34:23;;;;;;;3.30;1.50;;;;;;;9.43;79.71;99504.03;7389000;19;20348;-64
2023/12/31 09:36:51;;;;;;;2.60;1.40;;;;;;;9.48;79.83;99507.72;7387976;19;20328;-64
2023/12/31 09:39:18;;;;;;;2.60;1.40;;;;;;;9.52;79.31;99506.31;7390094;19;20375;-64
2023/12/31 09:41:49;;;;;;;2.72;1.80;;;;;;;9.57;79.36;99503.09;7388841;19;20329;-64
2023/12/31 09:44:20;;;;;;;3.07;1.60;;;;;;;9.57;78.52;99503.88;7388819;19;20348;-64
2023/12/31 09:47:06;;;;;;;2.50;1.30;;;;;;;9.59;78.32;99503.69;7389467;19;20393;-64
2023/12/31 09:49:39;;;;;;;2.35;1.25;;;;;;;9.61;78.17;99501.69;7390480;19;20320;-64
2023/12/31 09:52:10;;;;;;;2.78;1.33;;;;;;;9.64;78.13;99488.03;7384569;19;21208;-64
2023/12/31 09:54:38;;;;;;;2.60;1.30;;;;;;;9.66;77.68;99475.41;7387801;19;20467;-64
2023/12/31 09:57:06;;;;;;;3.27;1.47;;;;;;;9.69;77.68;99475.03;7382784;19;20430;-64
2023/12/31 09:59:33;;;;;;;3.70;1.50;;;;;;;9.71;77.78;99462.41;7385204;19;20917;-64
2023/12/31 10:02:03;;;;;;;3.30;1.50;;;;;;;9.71;77.81;99462.41;7387440;19;20369;-64
2023/12/31 10:04:31;;;;;;;2.42;1.42;;;;;;;9.74;77.95;99477.88;7385367;19;20722;-64
2023/12/31 10:06:59;;;;;;;3.50;1.52;;;;;;;9.76;77.62;99459.97;7387305;19;20394;-64
2023/12/31 10:09:27;;;;;;;3.08;1.50;;;;;;;9.76;77.03;99462.59;7388539;19;20385;-64
2023/12/31 10:12:00;;;;;;;3.40;1.75;;;;;;;9.81;77.33;99456.72;7387791;19;20403;-64
2023/12/31 10:14:28;;;;;;;2.67;1.60;;;;;;;9.87;76.88;99458.56;7388571;19;20357;-64
2023/12/31 10:16:55;;;;;;;2.53;1.70;;;;;;;9.91;75.49;99458.97;7389656;19;20384;-64
2023/12/31 10:19:23;;;;;;;3.00;1.52;;;;;;;9.97;75.17;99444.94;7388625;19;20380;-64
2023/12/31 10:21:50;;;;;;;2.35;1.35;;;;;;;9.96;74.33;99453.88;7381824;19;20350;-65
2023/12/31 10:24:30;;;;;;;2.50;1.50;;;;;;;10.05;74.00;99446.56;7386360;19;20399;-64
2023/12/31 10:26:57;;;;;;;2.40;1.50;;;;;;;10.09;73.88;99427.41;7385835;19;20455;-64
2023/12/31 10:29:24;;;;;;;2.70;1.85;;;;;;;10.14;74.06;99421.50;7384358;19;20344;-64
2023/12/31 10:31:55;;;;;;;3.80;1.70;;;;;;;10.15;73.92;99418.63;7383649;19;20920;-65
2023/12/31 10:34:22;;;;;;;2.75;1.50;;;;;;;10.11;74.01;99412.13;7385281;19;20368;-64
2023/12/31 10:37:00;;;;;;;2.67;1.33;;;;;;;10.08;73.72;99409.88;7388488;19;20381;-64
2023/12/31 10:39:29;;;;;;;2.72;1.45;;;;;;;10.08;74.23;99411.72;7390175;19;20336;-64
2023/12/31 10:42:06;;;;;;;2.53;1.45;;;;;;;10.04;74.56;99407.84;7393956;19;20364;-64
2023/12/31 10:44:35;;;;;;;2.15;1.45;;;;;;;10.02;75.14;99410.69;7396453;19;20340;-64
2023/12/31 10:47:04;;;;;;;2.47;1.37;;;;;;;9.98;75.31;99407.63;7397428;19;20709;-64
2023/12/31 10:49:32;;;;;;;2.30;1.50;;;;;;;9.97;75.65;99402.56;7391038;19;20340;-65
2023/12/31 10:52:02;;;;;;;2.97;1.57;;;;;;;9.98;75.47;99404.16;7396968;19;20348;-65
2023/12/31 10:54:38;;;;;;;2.33;1.52;;;;;;;9.99;75.54;99400.50;7398049;19;20348;-65
2023/12/31 10:57:06;;;;;;;2.60;1.67;;;;;;;10.00;75.39;99386.22;7396733;19;20364;-65
2023/12/31 10:59:34;;;;;;;2.80;1.52;;;;;;;9.98;74.97;99388.28;7397833;19;20352;-64
2023/12/31 11:02:02;;;;;;;2.23;1.30;;;;;;;10.00;74.81;99375.63;7395038;19;20364;-65
2023/12/31 11:04:31;;;;;;;2.33;1.40;;;;;;;9.97;74.73;99360.16;7394759;19;20329;-65
2023/12/31 11:07:00;;;;;;;2.13;1.48;;;;;;;10.03;74.77;99362.00;7398126;19;20380;-64
2023/12/31 11:09:27;;;;;;;3.00;1.50;;;;;;;10.08;74.19;99369.31;7396992;19;20340;-64
2023/12/31 11:11:54;;;;;;;2.70;1.50;;;;;;;10.07;74.28;99349.13;7395799;19;20360;-64
2023/12/31 11:14:29;;;;;;;3.25;1.60;;;;;;;10.13;74.35;99354.44;7398426;19;20368;-64
2023/12/31 11:17:21;;;;;;;3.15;1.73;;;;;;;10.20;73.53;99357.09;7397079;19;20658;-64
2023/12/31 11:20:08;;;;;;;2.88;1.80;;;;;;;10.25;73.13;99345.88;7396188;19;20832;-64
2023/12/31 11:22:53;;;;;;;2.53;1.40;;;;;;;10.36;73.19;99332.03;7395375;19;20443;-64
2023/12/31 11:25:21;;;;;;;2.53;1.42;;;;;;;10.42;73.21;99341.78;7393847;19;20381;-64
2023/12/31 11:27:53;;;;;;;2.75;1.65;;;;;;;10.54;72.88;99337.50;7396518;19;20332;-64
2023/12/31 11:30:45;;;;;;;2.28;1.45;;;;;;;10.68;72.31;99345.41;7395560;19;20352;-64
2023/12/31 11:33:21;;;;;;;2.40;1.40;;;;;;;10.79;71.79;99334.13;7394581;19;20705;-65
2023/12/31 11:35:51;;;;;;;2.20;1.30;;;;;;;10.85;71.75;99330.66;7396634;19;20362;-64
2023/12/31 11:38:19;;;;;;;2.72;1.38;;;;;;;10.92;71.01;99320.00;7394524;19;20393;-64
2023/12/31 11:40:46;;;;;;;2.55;1.50;;;;;;;11.00;71.20;99301.19;7392411;19;20349;-64